Buckeye, AZ

8:56 AM MST on April 26, 2017 (GMT -0700)
Buckeye Municipal

Weather History for KBXK - August, 2013

Change the Weather History Date:

Monday, August 5, 2013

  Actual Average (KGYR) Record (KGYR)
Temperature  
Mean Temperature 90 °F -  
Max Temperature 100 °F 101 °F 116 °F (1997)
Min Temperature 80 °F 79 °F 75 °F (2002)
Cooling Degree Days 25    
Growing Degree Days 40 (Base 50)    
Moisture  
Dew Point 45 °F    
Average Humidity 22    
Maximum Humidity 43    
Minimum Humidity 14    
Precipitation  
Precipitation 0.00 in - - ()
Sea Level Pressure  
Sea Level Pressure 29.89 in    
Wind  
Wind Speed 7 mph (SSW)    
Max Wind Speed 18 mph    
Max Gust Speed 23 mph    
Visibility 10 miles    
Events      
Averages and records for this station are not official NWS values.
T = Trace of Precipitation, MM = Missing Value Source: NWS Daily Summary

Daily Weather History Graph

Daily Weather History Graph

Search for Another Location

Airport or City:

Trip Planner

Search our weather history database for the weather conditions in past years. The results will help you decide how hot, cold, wet, or windy it might be!

Date:

Astronomy

Aug. 05, 2013 Rise Set
Actual Time 5:46 AM MST 7:26 PM MST
Civil Twilight 5:19 AM MST 7:53 PM MST
Nautical Twilight 4:47 AM MST 8:25 PM MST
Astronomical Twilight 4:13 AM MST 8:59 PM MST
Moon 4:44 AM MST (8/5) 6:31 PM MST (8/5)
Length of Visible Light 14h 33m
Length of Day
13h 40m
Waning Crescent, 1% of the Moon is Illuminated
Aug 5
Waning Crescent
Aug 6
New
Aug 14
First Quarter
Aug 20
Full
Aug 28
Last Quarter

Hourly Weather History & Observations

Time (MST) Temp. Heat Index Dew Point Humidity Pressure Visibility Wind Dir Wind Speed Gust Speed Precip Events Conditions
12:15 AM 84.2 °F - 37.4 °F 19% 29.85 in 10.0 mi SW 6.9 mph - N/A   Clear
12:35 AM 84.2 °F - 37.4 °F 19% 29.85 in 10.0 mi SW 8.1 mph - N/A   Clear
12:55 AM 84.2 °F - 35.6 °F 18% 29.85 in 10.0 mi SW 5.8 mph - N/A   Clear
1:15 AM 84.2 °F - 32.0 °F 15% 29.85 in 10.0 mi WSW 4.6 mph - N/A   Clear
1:35 AM 84.2 °F - 32.0 °F 15% 29.86 in 10.0 mi Calm Calm - N/A   Partly Cloudy
1:55 AM 84.2 °F - 33.8 °F 16% 29.86 in 10.0 mi Calm Calm - N/A   Partly Cloudy
2:15 AM 82.4 °F - 32.0 °F 16% 29.86 in 10.0 mi NW 3.5 mph - N/A   Clear
2:35 AM 82.4 °F - 32.0 °F 16% 29.86 in 10.0 mi Calm Calm - N/A   Partly Cloudy
2:55 AM 80.6 °F - 32.0 °F 17% 29.86 in 10.0 mi North 5.8 mph - N/A   Partly Cloudy
3:15 AM 82.4 °F - 32.0 °F 16% 29.86 in 10.0 mi NNE 3.5 mph - N/A   Partly Cloudy
3:35 AM 82.4 °F - 32.0 °F 16% 29.86 in 10.0 mi NW 4.6 mph - N/A   Mostly Cloudy
3:55 AM 80.6 °F - 32.0 °F 17% 29.87 in 8.0 mi NNW 5.8 mph - N/A   Scattered Clouds
4:15 AM 80.6 °F - 32.0 °F 17% 29.87 in 10.0 mi North 6.9 mph - N/A   Partly Cloudy
4:35 AM 82.4 °F - 30.2 °F 15% 29.87 in 10.0 mi NNW 5.8 mph - N/A   Scattered Clouds
4:55 AM 80.6 °F - 30.2 °F 16% 29.87 in 10.0 mi NNW 4.6 mph - N/A   Overcast
5:15 AM 82.4 °F - 30.2 °F 15% 29.88 in 10.0 mi NNW 5.8 mph - N/A   Overcast
5:35 AM 82.4 °F - 30.2 °F 15% 29.89 in 10.0 mi NNE 5.8 mph - N/A   Overcast
5:55 AM 82.4 °F - 32.0 °F 16% 29.89 in 10.0 mi NNW 3.5 mph - N/A   Mostly Cloudy
6:15 AM 82.4 °F - 32.0 °F 16% 29.90 in 10.0 mi North 3.5 mph - N/A   Scattered Clouds
6:35 AM 80.6 °F - 32.0 °F 17% 29.91 in 10.0 mi NNE 4.6 mph - N/A   Partly Cloudy
6:55 AM 84.2 °F - 32.0 °F 15% 29.91 in 10.0 mi NNE 4.6 mph - N/A   Clear
7:15 AM 84.2 °F - 32.0 °F 15% 29.92 in 10.0 mi NE 3.5 mph - N/A   Clear
7:35 AM 86.0 °F - 33.8 °F 15% 29.93 in 10.0 mi Calm Calm - N/A   Clear
7:55 AM 82.4 °F - 48.2 °F 30% 29.95 in 10.0 mi SE 6.9 mph - N/A   Clear
8:15 AM 86.0 °F - 46.4 °F 25% 29.95 in 10.0 mi East 5.8 mph - N/A   Clear
8:35 AM 89.6 °F - 35.6 °F 15% 29.95 in 10.0 mi East 4.6 mph - N/A   Clear
8:55 AM 91.4 °F - 35.6 °F 14% 29.95 in 10.0 mi ESE 5.8 mph - N/A   Clear
9:15 AM 91.4 °F - 39.2 °F 16% 29.96 in 10.0 mi SE 4.6 mph - N/A   Clear
9:35 AM 91.4 °F - 39.2 °F 16% 29.97 in 10.0 mi SE 6.9 mph - N/A   Clear
9:55 AM 91.4 °F - 37.4 °F 15% 29.98 in 10.0 mi SE 4.6 mph - N/A   Clear
10:15 AM 93.2 °F - 37.4 °F 14% 29.98 in 10.0 mi SSE 3.5 mph - N/A   Clear
10:35 AM 93.2 °F - 37.4 °F 14% 29.98 in 10.0 mi ESE 5.8 mph - N/A   Clear
10:55 AM 93.2 °F - 39.2 °F 15% 29.97 in 10.0 mi South 3.5 mph - N/A   Clear
11:15 AM 93.2 °F - 44.6 °F 19% 29.96 in 10.0 mi SSW 4.6 mph - N/A   Clear
11:35 AM 93.2 °F - 46.4 °F 20% 29.95 in 10.0 mi SSE 4.6 mph - N/A   Clear
11:55 AM 95.0 °F - 48.2 °F 20% 29.95 in 10.0 mi SSW 3.5 mph - N/A   Clear
12:15 PM 95.0 °F - 48.2 °F 20% 29.94 in 10.0 mi Calm Calm - N/A   Clear
12:35 PM 95.0 °F - 50.0 °F 22% 29.94 in 10.0 mi ESE 4.6 mph - N/A   Clear
12:55 PM 96.8 °F - 50.0 °F 20% 29.93 in 10.0 mi SSW 4.6 mph - N/A   Clear
1:15 PM 96.8 °F - 50.0 °F 20% 29.93 in 10.0 mi ESE 3.5 mph - N/A   Clear
1:35 PM 96.8 °F - 50.0 °F 20% 29.92 in 10.0 mi SSE 5.8 mph - N/A   Clear
1:55 PM 98.6 °F - 50.0 °F 19% 29.91 in 10.0 mi South 13.8 mph - N/A   Clear
2:15 PM 98.6 °F - 50.0 °F 19% 29.90 in 10.0 mi South 10.4 mph - N/A   Clear
2:35 PM 100.4 °F 98.4 °F 53.6 °F 21% 29.89 in 10.0 mi South 6.9 mph - N/A   Clear
2:55 PM 100.4 °F 98.4 °F 53.6 °F 21% 29.89 in 10.0 mi SSW 10.4 mph - N/A   Partly Cloudy
3:15 PM 100.4 °F 98.8 °F 55.4 °F 22% 29.87 in 10.0 mi SSW 10.4 mph - N/A   Partly Cloudy
3:35 PM 100.4 °F 98.8 °F 55.4 °F 22% 29.86 in 10.0 mi SSW 12.7 mph 18.4 mph N/A   Clear
3:55 PM 100.4 °F 98.8 °F 55.4 °F 22% 29.85 in 10.0 mi South 12.7 mph 18.4 mph N/A   Clear
4:15 PM 100.4 °F 98.8 °F 55.4 °F 22% 29.85 in 10.0 mi South 13.8 mph 17.3 mph N/A   Clear
4:35 PM 100.4 °F 98.4 °F 53.6 °F 21% 29.84 in 10.0 mi SW 11.5 mph - N/A   Clear
4:55 PM 98.6 °F - 51.8 °F 21% 29.84 in 10.0 mi SSW 12.7 mph - N/A   Clear
5:15 PM 98.6 °F 96.4 °F 53.6 °F 22% 29.83 in 10.0 mi SW 13.8 mph 18.4 mph N/A   Clear
5:35 PM 98.6 °F 96.4 °F 53.6 °F 22% 29.83 in 10.0 mi SW 9.2 mph 17.3 mph N/A   Clear
5:55 PM 96.8 °F 95.1 °F 55.4 °F 25% 29.83 in 10.0 mi SW 13.8 mph 18.4 mph N/A   Clear
6:15 PM 96.8 °F 95.1 °F 55.4 °F 25% 29.83 in 10.0 mi SW 12.7 mph 16.1 mph N/A   Clear
6:35 PM 95.0 °F 93.7 °F 57.2 °F 28% 29.83 in 10.0 mi SW 13.8 mph 20.7 mph N/A   Clear
6:55 PM 95.0 °F 93.7 °F 57.2 °F 28% 29.84 in 10.0 mi SW 16.1 mph 21.9 mph N/A   Scattered Clouds
7:15 PM 93.2 °F 91.9 °F 57.2 °F 30% 29.84 in 10.0 mi SW 18.4 mph - N/A   Mostly Cloudy
7:35 PM 93.2 °F 91.9 °F 57.2 °F 30% 29.84 in 10.0 mi SW 16.1 mph 23.0 mph N/A   Mostly Cloudy
7:55 PM 93.2 °F 91.9 °F 57.2 °F 30% 29.85 in 10.0 mi SW 13.8 mph 20.7 mph N/A   Overcast
8:15 PM 93.2 °F 91.9 °F 57.2 °F 30% 29.86 in 10.0 mi SW 13.8 mph - N/A   Overcast
8:35 PM 91.4 °F 89.9 °F 57.2 °F 31% 29.87 in 10.0 mi SW 13.8 mph 18.4 mph N/A   Overcast
8:55 PM 91.4 °F 89.9 °F 57.2 °F 31% 29.88 in 10.0 mi SW 10.4 mph - N/A   Overcast
9:15 PM 91.4 °F 89.9 °F 57.2 °F 31% 29.88 in 10.0 mi SW 9.2 mph - N/A   Overcast
9:35 PM 91.4 °F 90.7 °F 59.0 °F 34% 29.88 in 10.0 mi SW 13.8 mph - N/A   Overcast
9:55 PM 91.4 °F 90.7 °F 59.0 °F 34% 29.89 in 10.0 mi SW 15.0 mph 19.6 mph N/A   Overcast
10:15 PM 89.6 °F 89.5 °F 60.8 °F 38% 29.89 in 10.0 mi SSW 9.2 mph - N/A   Overcast
10:35 PM 87.8 °F 87.1 °F 59.0 °F 38% 29.89 in 10.0 mi SSW 8.1 mph - N/A   Overcast
10:55 PM 87.8 °F 87.1 °F 59.0 °F 38% 29.89 in 10.0 mi SSW 6.9 mph - N/A   Overcast
11:15 PM 87.8 °F 87.1 °F 59.0 °F 38% 29.89 in 10.0 mi SW 8.1 mph - N/A   Overcast
11:35 PM 87.8 °F 87.1 °F 59.0 °F 38% 29.89 in 10.0 mi WSW 6.9 mph - N/A   Overcast
11:55 PM 86.0 °F 86.1 °F 60.8 °F 43% 29.89 in 10.0 mi SW 6.9 mph - N/A   Mostly Cloudy